createdAt,value
2022-08-30T00:02:35.197Z,1.08
2022-08-30T00:05:38.371Z,0.98
2022-08-30T00:08:42.912Z,0.80
2022-08-30T00:11:45.971Z,0.93
2022-08-30T00:14:49.234Z,0.90
2022-08-30T00:17:54.423Z,0.90
2022-08-30T00:20:57.406Z,0.70
2022-08-30T00:24:00.415Z,1.17
2022-08-30T00:27:03.447Z,0.95
2022-08-30T00:30:08.535Z,0.93
2022-08-30T00:33:13.995Z,1.02
2022-08-30T00:36:17.290Z,0.90
2022-08-30T00:39:20.298Z,0.80
2022-08-30T00:42:23.847Z,1.10
2022-08-30T00:45:32.806Z,1.10
2022-08-30T00:48:40.782Z,0.85
2022-08-30T00:51:43.962Z,1.17
2022-08-30T00:54:48.795Z,1.00
2022-08-30T00:57:56.466Z,1.10
2022-08-30T01:01:01.307Z,0.80
2022-08-30T01:04:08.694Z,1.15
2022-08-30T01:07:12.092Z,1.00
2022-08-30T01:10:17.721Z,1.00
2022-08-30T01:13:21.699Z,1.10
2022-08-30T01:16:27.320Z,1.00
2022-08-30T01:19:39.875Z,1.00
2022-08-30T01:22:48.182Z,1.15
2022-08-30T01:25:54.930Z,1.13
2022-08-30T01:29:01.234Z,1.00
2022-08-30T01:32:07.118Z,1.10
2022-08-30T01:35:12.397Z,1.20
2022-08-30T01:38:17.232Z,0.82
2022-08-30T01:41:24.627Z,1.10
2022-08-30T01:44:27.727Z,0.80
2022-08-30T01:47:30.766Z,1.08
2022-08-30T01:50:33.891Z,1.13
2022-08-30T01:53:36.937Z,1.05
2022-08-30T01:56:41.802Z,1.00
2022-08-30T01:59:47.714Z,1.05
2022-08-30T02:02:51.783Z,1.13
2022-08-30T02:05:55.257Z,0.85
2022-08-30T02:08:58.864Z,0.90
2022-08-30T02:12:03.583Z,1.15
2022-08-30T02:15:07.770Z,0.98
2022-08-30T02:18:11.766Z,1.10
2022-08-30T02:21:14.909Z,1.35
2022-08-30T02:24:17.919Z,1.00
2022-08-30T02:27:22.689Z,1.00
2022-08-30T02:30:25.882Z,1.30
2022-08-30T02:33:29.173Z,1.23
2022-08-30T02:36:32.258Z,1.00
2022-08-30T02:39:35.277Z,1.10
2022-08-30T02:42:41.631Z,1.17
2022-08-30T02:45:44.753Z,1.00
2022-08-30T02:48:47.883Z,1.08
2022-08-30T02:51:51.640Z,1.10
2022-08-30T02:54:55.265Z,1.10
2022-08-30T02:57:59.659Z,0.90
2022-08-30T03:01:03.038Z,1.00
2022-08-30T03:04:06.700Z,1.20
2022-08-30T03:07:10.122Z,1.20
2022-08-30T03:10:13.935Z,1.27
2022-08-30T03:13:18.624Z,1.10
2022-08-30T03:16:23.006Z,1.27
2022-08-30T03:19:26.533Z,1.10
2022-08-30T03:22:29.623Z,1.30
2022-08-30T03:25:33.838Z,1.38
2022-08-30T03:28:38.190Z,1.13
2022-08-30T03:31:52.561Z,1.10
2022-08-30T03:34:56.722Z,1.40
2022-08-30T03:38:00.189Z,1.20
2022-08-30T03:41:04.289Z,1.20
2022-08-30T03:44:09.581Z,1.27
2022-08-30T03:47:12.525Z,1.10
2022-08-30T03:50:16.778Z,1.10
2022-08-30T03:53:19.845Z,1.20
2022-08-30T03:56:23.377Z,1.10
2022-08-30T03:59:27.817Z,1.17
2022-08-30T04:02:30.840Z,1.10
2022-08-30T04:05:34.443Z,1.15
2022-08-30T04:08:38.283Z,1.45
2022-08-30T04:11:41.357Z,1.30
2022-08-30T04:14:45.767Z,1.20
2022-08-30T04:17:49.033Z,1.20
2022-08-30T04:20:53.183Z,1.30
2022-08-30T04:23:56.390Z,1.30
2022-08-30T04:26:59.407Z,1.02
2022-08-30T04:30:04.458Z,1.30
2022-08-30T04:33:07.670Z,1.10
2022-08-30T04:36:13.799Z,1.23
2022-08-30T04:39:17.225Z,1.15
2022-08-30T04:42:20.474Z,1.30
2022-08-30T04:45:24.920Z,1.40
2022-08-30T04:48:27.982Z,1.02
2022-08-30T04:51:31.094Z,1.30
2022-08-30T04:54:34.222Z,1.10
2022-08-30T04:57:38.058Z,1.27
2022-08-30T05:00:44.778Z,1.20
2022-08-30T05:03:48.083Z,1.25
2022-08-30T05:06:51.166Z,1.30
2022-08-30T05:09:54.157Z,1.30
2022-08-30T05:12:58.633Z,0.98
2022-08-30T05:16:04.487Z,1.30
2022-08-30T05:19:07.917Z,2.85
2022-08-30T05:22:11.237Z,1.25
2022-08-30T05:25:14.681Z,1.45
2022-08-30T05:28:18.031Z,1.25
2022-08-30T05:31:25.893Z,1.38
2022-08-30T05:34:31.542Z,1.40
2022-08-30T05:37:34.671Z,1.23
2022-08-30T05:40:41.870Z,1.77
2022-08-30T05:43:45.273Z,1.40
2022-08-30T05:46:49.697Z,1.38
2022-08-30T05:49:52.811Z,1.30
2022-08-30T05:52:55.965Z,1.30
2022-08-30T05:55:58.961Z,1.50
2022-08-30T05:59:02.778Z,1.20
2022-08-30T06:02:07.967Z,1.30
2022-08-30T06:05:14.349Z,1.30
2022-08-30T06:08:18.097Z,1.10
2022-08-30T06:11:23.531Z,1.50
2022-08-30T06:14:26.609Z,1.15
2022-08-30T06:17:31.606Z,1.00
2022-08-30T06:20:35.120Z,1.05
2022-08-30T06:23:38.118Z,1.33
2022-08-30T06:26:43.080Z,1.30
2022-08-30T06:29:46.065Z,1.00
2022-08-30T06:32:50.521Z,1.60
2022-08-30T06:35:59.057Z,1.63
2022-08-30T06:39:02.679Z,2.00
2022-08-30T06:42:06.241Z,1.40
2022-08-30T06:45:10.420Z,1.67
2022-08-30T06:48:15.780Z,1.80
2022-08-30T06:51:21.253Z,1.40
2022-08-30T06:54:24.319Z,1.10
2022-08-30T06:57:28.186Z,1.23
2022-08-30T07:00:31.429Z,1.42
2022-08-30T07:03:36.954Z,1.10
2022-08-30T07:06:39.937Z,1.10
2022-08-30T07:09:43.601Z,0.90
2022-08-30T07:12:46.690Z,1.50
2022-08-30T07:15:49.817Z,1.08
2022-08-30T07:18:58.701Z,1.02
2022-08-30T07:22:02.646Z,0.93
2022-08-30T07:25:06.363Z,1.02
2022-08-30T07:28:11.439Z,0.70
2022-08-30T07:31:16.660Z,1.00
2022-08-30T07:34:26.986Z,1.00
2022-08-30T07:37:30.500Z,1.10
2022-08-30T07:40:33.588Z,1.08
2022-08-30T07:43:38.173Z,0.98
2022-08-30T07:46:43.863Z,0.70
2022-08-30T07:49:48.329Z,0.70
2022-08-30T07:52:51.471Z,1.33
2022-08-30T07:55:55.528Z,0.75
2022-08-30T07:58:58.829Z,0.90
2022-08-30T08:02:02.285Z,0.80
2022-08-30T08:05:08.242Z,0.70
2022-08-30T08:08:11.374Z,0.80
2022-08-30T08:11:16.855Z,0.70
2022-08-30T08:14:21.484Z,0.60
2022-08-30T08:17:24.902Z,0.82
2022-08-30T08:20:29.738Z,0.80
2022-08-30T08:23:32.765Z,0.65
2022-08-30T08:26:36.698Z,1.13
2022-08-30T08:29:39.757Z,1.10
2022-08-30T08:32:42.836Z,1.00
2022-08-30T08:35:47.491Z,1.10
2022-08-30T08:38:50.575Z,0.90
2022-08-30T08:42:06.044Z,0.90
2022-08-30T08:45:15.262Z,1.00
2022-08-30T08:48:45.549Z,0.77
2022-08-30T08:52:13.962Z,1.00
2022-08-30T08:55:22.193Z,0.70
2022-08-30T08:58:27.722Z,0.63
2022-08-30T09:01:33.549Z,0.80
2022-08-30T09:04:39.525Z,0.75
2022-08-30T09:07:49.391Z,0.52
2022-08-30T09:10:56.970Z,0.90
2022-08-30T09:14:00.181Z,0.90
2022-08-30T09:17:07.525Z,0.77
2022-08-30T09:20:11.241Z,0.70
2022-08-30T09:23:32.401Z,1.90
2022-08-30T09:26:38.025Z,1.20
2022-08-30T09:29:51.733Z,1.48
2022-08-30T09:32:56.893Z,2.50
2022-08-30T09:36:14.783Z,1.92
2022-08-30T09:39:22.186Z,2.10
2022-08-30T09:42:31.253Z,1.80
2022-08-30T09:45:38.325Z,1.85
2022-08-30T09:48:44.230Z,1.88
2022-08-30T09:51:54.331Z,1.25
2022-08-30T09:55:20.439Z,1.55
2022-08-30T09:58:33.436Z,1.83
2022-08-30T10:01:40.832Z,1.30
2022-08-30T10:04:54.623Z,1.30
2022-08-30T10:08:07.999Z,1.27
2022-08-30T10:11:20.842Z,1.40
2022-08-30T10:14:37.871Z,1.48
2022-08-30T10:17:52.514Z,1.50
2022-08-30T10:21:05.138Z,1.48
2022-08-30T10:24:12.582Z,1.80
2022-08-30T10:27:30.256Z,2.05
2022-08-30T10:30:39.031Z,1.70
2022-08-30T10:33:48.301Z,2.60
2022-08-30T10:36:57.526Z,2.40
2022-08-30T10:40:26.843Z,2.22
2022-08-30T10:43:39.151Z,2.50
2022-08-30T10:46:51.838Z,2.50
2022-08-30T10:50:03.811Z,2.67
2022-08-30T10:53:15.339Z,2.65
2022-08-30T10:56:21.743Z,2.47
2022-08-30T10:59:26.496Z,3.00
2022-08-30T11:03:21.043Z,2.40
2022-08-30T11:06:32.379Z,2.75
2022-08-30T11:09:55.229Z,2.20
2022-08-30T11:13:03.061Z,2.00
2022-08-30T11:16:10.722Z,2.22
2022-08-30T11:19:18.852Z,2.42
2022-08-30T11:22:27.991Z,2.15
2022-08-30T11:25:56.860Z,2.40
2022-08-30T11:29:06.626Z,2.70
2022-08-30T11:32:59.992Z,2.95
2022-08-30T11:36:03.173Z,2.50
2022-08-30T11:39:08.626Z,2.85
2022-08-30T11:42:14.486Z,2.47
2022-08-30T11:45:52.361Z,2.63
2022-08-30T11:49:05.416Z,2.75
2022-08-30T11:52:30.827Z,2.60
2022-08-30T11:55:50.987Z,2.85
2022-08-30T11:59:01.213Z,2.38
2022-08-30T12:02:05.405Z,2.50
2022-08-30T12:05:51.563Z,2.58
2022-08-30T12:08:59.627Z,2.97
2022-08-30T12:12:07.693Z,3.13
2022-08-30T12:15:48.106Z,2.70
2022-08-30T12:18:55.510Z,3.47
2022-08-30T12:22:02.987Z,3.70
2022-08-30T12:25:16.702Z,2.78
2022-08-30T12:28:25.950Z,3.20
2022-08-30T12:31:29.056Z,2.90
2022-08-30T12:34:36.217Z,3.00
2022-08-30T12:37:42.347Z,2.80
2022-08-30T12:40:55.992Z,2.28
2022-08-30T12:44:00.606Z,2.25
2022-08-30T12:47:07.206Z,2.20
2022-08-30T12:50:15.306Z,1.85
2022-08-30T12:53:28.635Z,2.00
2022-08-30T12:56:49.578Z,1.92
2022-08-30T12:59:59.775Z,1.60
2022-08-30T13:03:16.251Z,1.60
2022-08-30T13:06:38.852Z,1.60
2022-08-30T13:09:45.201Z,1.52
2022-08-30T13:13:02.859Z,1.67
2022-08-30T13:16:29.321Z,1.50
2022-08-30T13:19:35.288Z,1.67
2022-08-30T13:22:40.275Z,1.60
2022-08-30T13:25:44.710Z,1.50
2022-08-30T13:28:51.272Z,1.50
2022-08-30T13:31:54.579Z,1.40
2022-08-30T13:34:57.701Z,1.80
2022-08-30T13:38:02.810Z,2.50
2022-08-30T13:41:07.611Z,1.77
2022-08-30T13:44:14.190Z,2.00
2022-08-30T13:47:37.002Z,2.60
2022-08-30T13:50:40.690Z,2.42
2022-08-30T13:53:59.255Z,2.72
2022-08-30T13:57:04.075Z,2.50
2022-08-30T14:00:12.255Z,2.30
2022-08-30T14:03:16.494Z,2.08
2022-08-30T14:06:32.791Z,1.95
2022-08-30T14:09:37.760Z,1.70
2022-08-30T14:13:04.851Z,1.95
2022-08-30T14:19:31.855Z,1.60
2022-08-30T14:22:34.878Z,1.30
2022-08-30T14:25:41.057Z,1.52
2022-08-30T14:28:45.912Z,1.30
2022-08-30T14:31:54.771Z,1.30
2022-08-30T14:34:57.995Z,1.25
2022-08-30T14:38:01.157Z,1.70
2022-08-30T14:41:05.472Z,1.75
2022-08-30T14:44:10.593Z,1.95
2022-08-30T14:47:13.974Z,1.60
2022-08-30T14:50:17.323Z,1.95
2022-08-30T14:53:20.627Z,1.70
2022-08-30T14:56:25.041Z,2.00
2022-08-30T14:59:29.622Z,2.30
2022-08-30T15:02:32.926Z,1.95
2022-08-30T15:05:36.033Z,2.03
2022-08-30T15:08:39.853Z,2.70
2022-08-30T15:11:43.401Z,2.20
2022-08-30T15:14:48.626Z,2.13
2022-08-30T15:17:52.333Z,3.22
2022-08-30T15:20:55.485Z,3.30
2022-08-30T15:24:00.026Z,3.25
2022-08-30T15:27:05.034Z,3.20
2022-08-30T15:30:12.612Z,2.83
2022-08-30T15:33:18.050Z,2.45
2022-08-30T15:36:21.460Z,1.95
2022-08-30T15:39:25.872Z,2.08
2022-08-30T15:42:28.950Z,2.20
2022-08-30T15:45:33.430Z,2.50
2022-08-30T15:48:41.384Z,1.92
2022-08-30T15:51:51.558Z,2.40
2022-08-30T15:54:57.753Z,2.00
2022-08-30T15:58:01.308Z,2.10
2022-08-30T16:01:08.145Z,2.08
2022-08-30T16:04:11.610Z,2.33
2022-08-30T16:07:15.407Z,2.65
2022-08-30T16:10:20.021Z,2.30
2022-08-30T16:13:23.146Z,1.83
2022-08-30T16:16:28.005Z,2.00
2022-08-30T16:19:31.649Z,1.83
2022-08-30T16:22:34.995Z,1.80
2022-08-30T16:25:40.064Z,1.60
2022-08-30T16:28:44.476Z,1.70
2022-08-30T16:31:49.441Z,1.48
2022-08-30T16:34:52.701Z,1.60
2022-08-30T16:37:57.424Z,1.27
2022-08-30T16:41:03.894Z,1.70
2022-08-30T16:44:08.421Z,2.17
2022-08-30T16:47:13.570Z,1.38
2022-08-30T16:50:18.589Z,1.10
2022-08-30T16:53:21.669Z,1.20
2022-08-30T16:56:27.098Z,1.23
2022-08-30T16:59:30.424Z,1.13
2022-08-30T17:02:37.702Z,1.00
2022-08-30T17:05:41.362Z,1.15
2022-08-30T17:08:45.654Z,1.25
2022-08-30T17:11:50.835Z,1.30
2022-08-30T17:14:54.370Z,1.17
2022-08-30T17:17:59.066Z,1.33
2022-08-30T17:21:02.517Z,1.02
2022-08-30T17:24:05.891Z,1.10
2022-08-30T17:27:09.423Z,0.93
2022-08-30T17:30:13.275Z,1.15
2022-08-30T17:33:18.761Z,1.20
2022-08-30T17:36:22.410Z,1.00
2022-08-30T17:39:25.686Z,0.90
2022-08-30T17:42:30.072Z,0.95
2022-08-30T17:45:33.515Z,0.90
2022-08-30T17:48:38.850Z,0.75
2022-08-30T17:51:42.803Z,1.05
2022-08-30T17:54:45.889Z,0.95
2022-08-30T17:57:50.922Z,1.15
2022-08-30T18:00:56.989Z,1.30
2022-08-30T18:04:06.138Z,1.10
2022-08-30T18:07:12.060Z,1.00
2022-08-30T18:10:15.483Z,1.00
2022-08-30T18:13:19.522Z,1.13
2022-08-30T18:16:26.436Z,1.20
2022-08-30T18:19:32.151Z,1.00
2022-08-30T18:22:35.388Z,1.05
2022-08-30T18:25:38.787Z,1.17
2022-08-30T18:28:42.502Z,1.20
2022-08-30T18:31:45.614Z,1.30
2022-08-30T18:34:50.454Z,0.98
2022-08-30T18:37:53.545Z,1.20
2022-08-30T18:40:59.858Z,1.10
2022-08-30T18:44:24.328Z,1.35
2022-08-30T18:47:27.215Z,0.88
2022-08-30T18:50:31.626Z,1.00
2022-08-30T18:53:35.379Z,0.90
2022-08-30T18:56:40.443Z,1.05
2022-08-30T18:59:48.157Z,1.10
2022-08-30T19:02:51.510Z,1.30
2022-08-30T19:05:55.999Z,0.95
2022-08-30T19:09:00.078Z,1.20
2022-08-30T19:12:09.745Z,1.75
2022-08-30T19:15:15.180Z,1.08
2022-08-30T19:18:19.046Z,1.10
2022-08-30T19:21:23.630Z,1.08
2022-08-30T19:24:26.668Z,1.05
2022-08-30T19:27:38.451Z,1.05
2022-08-30T19:30:43.511Z,1.00
2022-08-30T19:33:47.382Z,1.10
2022-08-30T19:36:52.195Z,1.13
2022-08-30T19:39:55.946Z,1.10
2022-08-30T19:43:02.319Z,0.80
2022-08-30T19:46:08.514Z,1.00
2022-08-30T19:49:14.068Z,1.00
2022-08-30T19:52:18.470Z,1.00
2022-08-30T19:55:28.133Z,1.02
2022-08-30T19:58:31.341Z,0.98
2022-08-30T20:01:34.557Z,0.90
2022-08-30T20:04:38.170Z,0.93
2022-08-30T20:07:45.366Z,1.10
2022-08-30T20:10:49.720Z,1.00
2022-08-30T20:13:55.473Z,1.02
2022-08-30T20:16:59.270Z,0.90
2022-08-30T20:20:08.319Z,1.45
2022-08-30T20:23:16.125Z,1.00
2022-08-30T20:26:27.399Z,0.90
2022-08-30T20:29:37.896Z,0.88
2022-08-30T20:32:44.057Z,1.00
2022-08-30T20:35:49.647Z,1.05
2022-08-30T20:38:54.879Z,1.30
2022-08-30T20:41:58.258Z,1.00
2022-08-30T20:45:01.379Z,1.10
2022-08-30T20:48:05.794Z,0.95
2022-08-30T20:51:10.690Z,1.00
2022-08-30T20:54:15.835Z,0.80
2022-08-30T20:57:22.578Z,1.02
2022-08-30T21:00:28.508Z,0.82
2022-08-30T21:03:32.815Z,0.88
2022-08-30T21:06:37.644Z,1.10
2022-08-30T21:09:42.957Z,0.93
2022-08-30T21:12:45.943Z,0.88
2022-08-30T21:15:52.354Z,0.77
2022-08-30T21:18:55.506Z,0.70
2022-08-30T21:21:58.575Z,0.93
2022-08-30T21:25:03.627Z,1.10
2022-08-30T21:28:06.971Z,0.90
2022-08-30T21:31:12.747Z,0.95
2022-08-30T21:34:16.830Z,1.00
2022-08-30T21:37:19.782Z,1.20
2022-08-30T21:40:24.360Z,1.67
2022-08-30T21:43:27.462Z,1.23
2022-08-30T21:46:32.341Z,1.15
2022-08-30T21:49:35.825Z,1.20
2022-08-30T21:52:38.844Z,1.50
2022-08-30T21:55:43.792Z,1.20
2022-08-30T21:58:47.513Z,1.10
2022-08-30T22:01:50.724Z,1.98
2022-08-30T22:04:54.498Z,1.20
2022-08-30T22:07:57.567Z,0.90
2022-08-30T22:11:02.050Z,1.20
2022-08-30T22:14:06.301Z,1.20
2022-08-30T22:17:09.378Z,1.20
2022-08-30T22:20:16.221Z,1.30
2022-08-30T22:23:21.994Z,0.98
2022-08-30T22:26:27.126Z,1.00
2022-08-30T22:29:30.519Z,1.00
2022-08-30T22:32:33.658Z,1.30
2022-08-30T22:35:37.635Z,1.02
2022-08-30T22:38:41.859Z,0.90
2022-08-30T22:41:47.294Z,1.10
2022-08-30T22:44:51.742Z,1.08
2022-08-30T22:47:54.884Z,1.10
2022-08-30T22:50:57.965Z,0.85
2022-08-30T22:54:01.913Z,1.10
2022-08-30T22:57:06.890Z,0.85
2022-08-30T23:00:15.134Z,1.23
2022-08-30T23:03:19.034Z,1.08
2022-08-30T23:06:22.425Z,1.30
2022-08-30T23:09:25.406Z,0.90
2022-08-30T23:12:30.052Z,1.02
2022-08-30T23:15:33.566Z,0.90
2022-08-30T23:18:38.564Z,0.85
2022-08-30T23:21:43.645Z,0.70
2022-08-30T23:25:04.138Z,0.95
2022-08-30T23:28:35.873Z,0.85
2022-08-30T23:31:56.550Z,1.13
2022-08-30T23:35:16.786Z,0.90
2022-08-30T23:38:37.626Z,0.90
2022-08-30T23:41:58.415Z,0.77
2022-08-30T23:45:20.277Z,0.85
2022-08-30T23:48:40.601Z,0.80
2022-08-30T23:52:11.361Z,0.90
2022-08-30T23:55:31.614Z,1.00
2022-08-30T23:58:52.054Z,0.93
